Terminal Aerodrome Forecast
Issued by NWS

Current Version | Previous Version | Graphics & Text | Print | Product List | Glossary On
Versions: 1 2 3 4 5 6 7 8 9 10 11 12 13 14 15 16 17 18 19 20 21 22 23 24 25 26 27 28 29 30 31 32 33 34
000
FTUS41 KRNK 250520
TAFLWB
TAF
KLWB 250520Z 2506/2606 26005KT P6SM SKC
     FM251000 26007KT P6SM BKN020
     FM252000 25004KT P6SM SCT025 OVC200
     FM260400 04002KT 4SM -SN BR OVC025=

USA.gov is the U.S. government's official web portal to all federal, state and local government web resources and services.